Extended Streamflow Prediction
Issued by NWS Lower Mississippi RFC

Current Version | Previous Version | Graphics & Text | Print | Product List | Glossary On
Versions: 1 2 3 4 5 6 7 8 9 10 11 12 13 14 15 16 17 18 19 20 21 22 23 24 25 26 27 28 29 30 31 32 33 34 35 36 37 38 39 40 41 42 43 44 45 46 47 48 49 50
098
FGUS64 KORN 211448
ESPORN

EXTENDED STREAMFLOW PREDICTION
NATIONAL WEATHER SERVICE RIVER FORECAST CENTER, SLIDELL, LA
0948 AM CDT FRI JUL 21 2017

   DATE   CPGM7 CIRI2 NMDM7 TPTT1 CRTM7 OSGA4 MEMT1 TRPM6 HEEA4
07-22-17   20.0  24.5  15.1  18.6  18.0  11.2  11.7  22.2  18.5
07-23-17   19.1  23.1  13.8  17.4  17.1  10.4  11.3  22.2  18.8
07-24-17   18.8  22.0  12.5  16.3  16.0   9.4  10.5  21.5  18.4
07-25-17   18.7  20.8  11.4  15.1  14.8   8.4   9.6  20.7  17.7
07-26-17   18.6  19.9  10.4  14.0  13.8   7.6   8.7  19.8  16.9
07-27-17   18.6  20.3  10.1  13.3  12.9   6.9   8.1  19.1  16.1
07-28-17   19.1  21.2  10.7  13.6  12.6   6.6   7.5  18.5  15.5
07-29-17   19.5  20.9  11.1  14.2  13.2   7.0   7.6  18.3  15.0
07-30-17   20.0  20.2  10.5  14.0  13.5   7.1   8.0  18.6  15.1
07-31-17   20.5  19.7  10.0  13.5  13.1   6.9   7.9  18.8  15.5
08-01-17   21.1  19.4   9.7  13.1  12.5   6.5   7.5  18.5  15.4
08-02-17   21.5  19.3   9.5  12.8  12.3   6.3   7.3  18.2  15.1
08-03-17   21.8  19.2   9.4  12.7  12.1   6.1   7.1  18.0  14.9
08-04-17   22.0  19.1   9.3  12.6  12.0   6.1   7.0  17.9  14.7
08-05-17   21.7  19.1   9.3  12.6  12.0   6.0   7.0  17.9  14.7
08-06-17   21.0  18.6   9.1  12.5  11.9   6.0   6.9  17.8  14.6
08-07-17   19.9  18.0   8.6  12.2  11.7   5.8   6.8  17.8  14.6
08-08-17   18.5  17.2   8.0  11.7  11.3   5.6   6.6  17.7  14.5
08-09-17   16.9  16.4   7.4  11.1  10.8   5.2   6.3  17.5  14.4
08-10-17   15.5  15.7   6.7  10.4  10.2   4.5   5.8  17.1  14.1
08-11-17   14.3  15.0   6.0   9.8   9.6   3.8   5.2  16.5  13.7
08-12-17   13.6  14.3   5.4   9.2   9.0   3.2   4.5  15.9  13.1
08-13-17   13.0  13.7   4.8   8.6   8.4   2.6   3.9  15.3  12.5
08-14-17   12.4  13.0   4.3   8.1   7.8   2.1   3.5  14.8  12.0
08-15-17   11.8  12.6   3.7   7.6   7.4   1.8   3.1  14.4  11.6
08-16-17   11.3  12.1   3.3   7.1   6.9   1.5   2.8  14.1  11.3
08-17-17   10.9  11.7   2.9   6.7   6.5   1.4   2.6  13.9  11.0
08-18-17   10.5  11.4   2.5   6.4   6.2   1.2   2.4  13.7  10.8

   DATE   ARSA4 GEEM6 VCKM6 NTZM6 RRLL1 BTRL1 DONL1 RRVL1 NORL1
07-22-17   16.7  27.4  23.8  32.8  36.3  21.0  13.0   9.8   6.7
07-23-17   16.9  27.7  23.5  32.2  35.5  20.2  12.4   9.4   6.4
07-24-17   17.0  27.9  23.7  31.9  34.9  19.5  11.9   9.0   6.1
07-25-17   16.8  27.8  23.9  32.2  34.6  19.1  11.5   8.7   5.9
07-26-17   16.3  27.5  23.8  32.3  34.9  19.1  11.3   8.5   5.8
07-27-17   15.6  26.9  23.5  32.3  35.0  19.4  11.5   8.6   5.7
07-28-17   14.9  26.3  22.9  32.0  35.0  19.4  11.6   8.7   5.8
07-29-17   14.4  25.6  22.3  31.4  34.7  19.3  11.6   8.7   5.8
07-30-17   13.9  25.1  21.7  30.8  34.2  18.9  11.4   8.6   5.8
07-31-17   14.0  24.9  21.2  30.3  33.7  18.4  11.1   8.5   5.7
08-01-17   14.3  25.2  21.0  29.8  33.2  17.9  10.7   8.2   5.5
08-02-17   14.2  25.3  21.3  29.6  32.7  17.4  10.4   8.0   5.4
08-03-17   13.9  25.1  21.4  29.9  32.5  17.1  10.1   7.8   5.3
08-04-17   13.7  24.9  21.3  30.0  32.8  17.1  10.0   7.6   5.2
08-05-17   13.5  24.7  21.0  29.8  32.9  17.4  10.2   7.6   5.1
08-06-17   13.5  24.6  20.9  29.6  32.8  17.3  10.3   7.8   5.1
08-07-17   13.5  24.6  20.8  29.4  32.5  17.1  10.2   7.8   5.2
08-08-17   13.4  24.6  20.7  29.4  32.4  17.0  10.0   7.7   5.2
08-09-17   13.3  24.6  20.7  29.3  32.3  16.9   9.9   7.6   5.1
08-10-17   13.2  24.4  20.7  29.3  32.3  16.8   9.9   7.6   5.1
08-11-17   12.9  24.3  20.5  29.3  32.3  16.8   9.9   7.5   5.0
08-12-17   12.5  23.9  20.4  29.1  32.3  16.8   9.9   7.5   5.0
08-13-17   12.0  23.5  20.1  29.0  32.2  16.7   9.9   7.5   5.0
08-14-17   11.4  22.9  19.6  28.7  32.1  16.7   9.8   7.5   5.0
08-15-17   10.9  22.4  19.1  28.3  31.8  16.4   9.7   7.5   5.0
08-16-17   10.5  22.0  18.6  27.8  31.4  16.1   9.5   7.4   4.9
08-17-17   10.2  21.7  18.2  27.3  30.9  15.7   9.3   7.2   4.8
08-18-17   10.0  21.4  17.9  26.9  30.5  15.3   9.0   7.1   4.8

NOTE: STAGE FORECASTS ARE BASED ON FUTURE RAINFALL COVERING
THE NEXT 48 HOURS.

END ORN


$$





USA.gov is the U.S. government's official web portal to all federal, state and local government web resources and services.